createdAt,value
2019-05-03T05:39:26.522Z,8.60
2019-05-03T05:41:55.638Z,8.50
2019-05-03T06:44:26.994Z,9.60
2019-05-03T07:08:46.945Z,9.90
2019-05-03T07:11:29.164Z,10.00
2019-05-03T07:18:21.805Z,9.80
2019-05-03T10:02:08.352Z,9.70
2019-05-03T10:04:36.615Z,10.00
2019-05-03T10:07:17.399Z,10.10
2019-05-03T10:12:57.867Z,10.10
2019-05-03T10:42:09.620Z,10.30
2019-05-03T11:55:22.968Z,9.60
2019-05-03T11:58:05.642Z,9.70
2019-05-03T12:00:48.071Z,9.80
2019-05-03T12:03:25.047Z,10.20
2019-05-03T12:05:57.608Z,10.60
2019-05-03T12:08:27.092Z,10.80
2019-05-03T12:11:05.730Z,10.80
2019-05-03T12:13:39.091Z,10.70
2019-05-03T12:16:32.012Z,10.50
2019-05-03T12:18:58.273Z,10.40
2019-05-03T12:24:20.235Z,9.90
2019-05-03T12:26:58.074Z,9.90
2019-05-03T12:29:30.859Z,10.00
2019-05-03T12:32:00.047Z,10.10
2019-05-03T12:34:40.256Z,9.90
2019-05-03T12:37:32.545Z,9.70
2019-05-03T12:49:05.169Z,9.30
2019-05-03T13:14:06.679Z,9.80
2019-05-03T13:17:24.681Z,10.00
2019-05-03T13:20:00.363Z,10.00
2019-05-03T13:22:47.604Z,10.10
2019-05-03T13:28:17.176Z,10.10
2019-05-03T13:30:50.031Z,10.40
2019-05-03T13:39:35.838Z,10.50
2019-05-03T13:42:02.724Z,10.80
2019-05-03T13:44:35.856Z,11.00
2019-05-03T13:50:07.279Z,10.90
2019-05-03T13:52:52.032Z,10.70
2019-05-03T13:55:26.162Z,10.40
2019-05-03T14:01:08.312Z,10.20
2019-05-03T14:03:54.575Z,10.10
2019-05-03T14:06:27.035Z,9.90
2019-05-03T14:15:28.489Z,9.80
2019-05-03T14:18:10.561Z,9.80
2019-05-03T14:20:55.064Z,10.00
2019-05-03T14:23:25.582Z,10.20
2019-05-03T14:25:55.902Z,10.20
2019-05-03T14:28:36.562Z,10.20
2019-05-03T14:31:19.961Z,10.30
2019-05-03T14:34:06.079Z,10.60
2019-05-03T14:36:36.242Z,10.90
2019-05-03T14:39:10.217Z,11.30
2019-05-03T14:41:47.169Z,11.60
2019-05-03T14:44:18.205Z,11.40
2019-05-03T14:46:48.228Z,11.70
2019-05-03T14:49:21.575Z,11.80
2019-05-03T14:51:51.822Z,11.70
2019-05-03T14:54:30.383Z,11.70
2019-05-03T14:57:18.497Z,11.60
2019-05-03T15:00:08.928Z,11.70
2019-05-03T15:02:57.948Z,11.40
2019-05-03T15:05:31.923Z,11.40
2019-05-03T15:08:02.670Z,11.20
2019-05-03T15:10:36.528Z,11.10
2019-05-03T15:13:06.115Z,11.10
2019-05-03T15:15:48.246Z,11.20
2019-05-03T15:18:25.943Z,11.00
2019-05-03T15:20:58.833Z,11.00
2019-05-03T15:23:29.943Z,10.90
2019-05-03T15:26:04.742Z,11.10
2019-05-03T15:28:35.638Z,11.20
2019-05-03T15:31:05.059Z,11.40
2019-05-03T15:33:35.352Z,11.50
2019-05-03T15:36:08.447Z,11.60
2019-05-03T15:38:37.085Z,11.60
2019-05-03T15:41:14.746Z,11.60
2019-05-03T15:43:46.492Z,11.70
2019-05-03T15:46:17.179Z,11.80
2019-05-03T15:48:47.772Z,12.00
2019-05-03T15:51:19.085Z,12.10
2019-05-03T15:53:47.360Z,12.00
2019-05-03T15:56:15.956Z,12.00
2019-05-03T15:58:46.824Z,11.80
2019-05-03T16:01:19.669Z,11.80
2019-05-03T16:03:49.830Z,11.70
2019-05-03T16:06:18.413Z,11.70
2019-05-03T16:09:09.856Z,11.60
2019-05-03T16:11:44.950Z,11.50
2019-05-03T16:14:16.252Z,11.10
2019-05-03T16:19:49.084Z,10.80
2019-05-03T16:22:17.607Z,10.60
2019-05-03T16:25:04.993Z,10.60
2019-05-03T16:37:34.581Z,10.30
2019-05-03T16:40:31.630Z,10.40
2019-05-03T16:46:07.155Z,10.40
2019-05-03T16:48:39.529Z,10.30
2019-05-03T16:51:09.796Z,10.40
2019-05-03T16:53:38.505Z,10.40
2019-05-03T16:56:24.521Z,10.50
2019-05-03T16:58:55.383Z,10.50
2019-05-03T17:01:28.861Z,10.50
2019-05-03T17:04:20.797Z,10.50
2019-05-03T17:07:16.709Z,10.60
2019-05-03T17:09:52.223Z,10.50
2019-05-03T17:18:24.736Z,10.00
2019-05-03T17:21:01.097Z,9.90
2019-05-03T17:27:09.837Z,9.80
2019-05-03T17:30:10.003Z,9.80
2019-05-03T18:07:55.464Z,9.30
2019-05-03T18:49:35.855Z,8.60
